createdAt,value
2023-04-16T00:01:08.714Z,22.80
2023-04-16T00:03:35.978Z,22.53
2023-04-16T00:06:03.383Z,19.90
2023-04-16T00:08:30.527Z,20.57
2023-04-16T00:10:57.666Z,23.10
2023-04-16T00:13:26.090Z,23.90
2023-04-16T00:15:53.218Z,24.47
2023-04-16T00:18:21.170Z,25.57
2023-04-16T00:20:49.174Z,27.03
2023-04-16T00:23:16.296Z,27.20
2023-04-16T00:25:43.485Z,27.10
2023-04-16T00:28:11.194Z,28.53
2023-04-16T00:30:38.457Z,28.90
2023-04-16T00:33:05.639Z,29.23
2023-04-16T00:35:32.717Z,29.93
2023-04-16T00:37:59.836Z,32.97
2023-04-16T00:40:30.130Z,30.43
2023-04-16T00:42:57.214Z,30.10
2023-04-16T00:45:24.357Z,27.10
2023-04-16T00:47:51.490Z,26.27
2023-04-16T00:50:18.650Z,28.57
2023-04-16T00:52:47.425Z,32.97
2023-04-16T00:55:15.137Z,35.67
2023-04-16T00:57:42.231Z,39.93
2023-04-16T01:00:09.981Z,37.00
2023-04-16T01:02:37.341Z,35.60
2023-04-16T01:05:04.894Z,36.13
2023-04-16T01:07:32.036Z,38.70
2023-04-16T01:09:59.134Z,38.63
2023-04-16T01:12:26.327Z,40.73
2023-04-16T01:14:53.460Z,40.53
2023-04-16T01:17:20.543Z,40.07
2023-04-16T01:19:47.650Z,40.13
2023-04-16T01:22:14.731Z,40.77
2023-04-16T01:24:41.825Z,38.13
2023-04-16T01:27:08.927Z,37.27
2023-04-16T01:29:36.078Z,35.73
2023-04-16T01:32:03.163Z,34.00
2023-04-16T01:34:30.488Z,32.23
2023-04-16T01:36:57.589Z,30.97
2023-04-16T01:39:24.700Z,28.70
2023-04-16T01:41:51.848Z,26.50
2023-04-16T01:44:18.933Z,28.23
2023-04-16T01:46:46.248Z,32.97
2023-04-16T01:49:13.713Z,38.13
2023-04-16T01:51:41.082Z,37.27
2023-04-16T01:54:08.188Z,35.80
2023-04-16T01:56:35.291Z,32.53
2023-04-16T01:59:02.431Z,32.90
2023-04-16T02:01:29.814Z,37.10
2023-04-16T02:03:57.670Z,34.23
2023-04-16T02:06:24.916Z,34.13
2023-04-16T02:08:52.016Z,32.53
2023-04-16T02:11:19.100Z,31.33
2023-04-16T02:13:46.211Z,31.87
2023-04-16T02:16:13.355Z,32.50
2023-04-16T02:18:40.736Z,52.47
2023-04-16T02:21:07.881Z,42.80
2023-04-16T02:23:34.989Z,29.57
2023-04-16T02:26:03.381Z,26.87
2023-04-16T02:28:30.618Z,32.03
2023-04-16T02:30:57.706Z,36.57
2023-04-16T02:33:26.635Z,32.97
2023-04-16T02:35:53.840Z,34.63
2023-04-16T02:38:20.901Z,34.77
2023-04-16T02:40:48.011Z,34.33
2023-04-16T02:43:15.369Z,37.40
2023-04-16T02:45:42.510Z,33.80
2023-04-16T02:48:09.970Z,34.17
2023-04-16T02:50:37.125Z,32.07
2023-04-16T02:53:04.382Z,34.13
2023-04-16T02:55:31.497Z,31.63
2023-04-16T02:57:58.632Z,32.73
2023-04-16T03:00:25.737Z,35.60
2023-04-16T03:02:52.978Z,33.43
2023-04-16T03:05:20.300Z,35.70
2023-04-16T03:07:47.384Z,36.23
2023-04-16T03:10:14.598Z,36.90
2023-04-16T03:12:41.731Z,33.67
2023-04-16T03:15:09.114Z,33.07
2023-04-16T03:17:36.373Z,40.03
2023-04-16T03:20:05.022Z,31.73
2023-04-16T03:22:32.142Z,30.77
2023-04-16T03:24:59.220Z,31.40
2023-04-16T03:27:26.373Z,32.33
2023-04-16T03:29:53.468Z,32.80
2023-04-16T03:32:20.600Z,30.03
2023-04-16T03:34:47.725Z,29.40
2023-04-16T03:37:14.863Z,29.30
2023-04-16T03:39:42.020Z,30.37
2023-04-16T03:42:09.126Z,33.00
2023-04-16T03:44:36.212Z,37.67
2023-04-16T03:47:03.280Z,42.03
2023-04-16T03:49:30.405Z,35.37
2023-04-16T03:51:57.481Z,27.10
2023-04-16T03:54:24.632Z,26.70
2023-04-16T03:56:52.117Z,30.07
2023-04-16T03:59:19.200Z,32.53
2023-04-16T04:01:46.673Z,30.53
2023-04-16T04:04:13.888Z,39.20
2023-04-16T04:06:41.064Z,31.00
2023-04-16T04:09:08.242Z,24.20
2023-04-16T04:11:35.511Z,21.27
2023-04-16T04:14:02.670Z,24.30
2023-04-16T04:16:29.800Z,23.63
2023-04-16T04:18:56.963Z,22.47
2023-04-16T04:21:24.074Z,21.07
2023-04-16T04:23:51.182Z,22.03
2023-04-16T04:26:18.349Z,19.63
2023-04-16T04:28:45.582Z,20.63
2023-04-16T04:31:12.747Z,19.83
2023-04-16T04:33:39.873Z,23.70
2023-04-16T04:36:07.256Z,22.57
2023-04-16T04:38:34.316Z,20.57
2023-04-16T04:41:01.408Z,21.07
2023-04-16T04:43:28.488Z,20.70
2023-04-16T04:45:55.629Z,20.90
2023-04-16T04:48:26.538Z,19.67
2023-04-16T04:50:53.897Z,19.33
2023-04-16T04:53:21.011Z,21.10
2023-04-16T04:55:52.154Z,22.20
2023-04-16T04:58:21.043Z,19.83
2023-04-16T05:00:48.172Z,23.13
2023-04-16T05:03:15.954Z,38.57
2023-04-16T05:05:43.062Z,43.23
2023-04-16T05:08:10.201Z,42.27
2023-04-16T05:10:37.283Z,71.60
2023-04-16T05:13:04.388Z,46.03
2023-04-16T05:15:31.530Z,47.40
2023-04-16T05:17:58.719Z,40.93
2023-04-16T05:20:25.863Z,36.63
2023-04-16T05:22:53.029Z,31.80
2023-04-16T05:25:20.178Z,34.03
2023-04-16T05:27:47.248Z,32.50
2023-04-16T05:30:14.422Z,29.47
2023-04-16T05:32:41.745Z,30.77
2023-04-16T05:35:09.613Z,38.30
2023-04-16T05:37:36.741Z,42.60
2023-04-16T05:40:04.050Z,41.47
2023-04-16T05:42:31.402Z,32.47
2023-04-16T05:44:58.530Z,28.00
2023-04-16T05:47:25.789Z,27.13
2023-04-16T05:49:52.949Z,27.20
2023-04-16T05:52:20.243Z,36.00
2023-04-16T05:54:47.336Z,44.27
2023-04-16T05:57:14.786Z,30.07
2023-04-16T05:59:41.934Z,26.60
2023-04-16T06:02:09.172Z,19.47
2023-04-16T06:04:37.180Z,21.50
2023-04-16T06:07:04.391Z,23.87
2023-04-16T06:09:31.536Z,21.23
2023-04-16T06:11:58.629Z,25.73
2023-04-16T06:14:25.907Z,24.63
2023-04-16T06:16:53.047Z,23.43
2023-04-16T06:19:20.137Z,24.03
2023-04-16T06:21:47.351Z,24.77
2023-04-16T06:24:14.488Z,35.00
2023-04-16T06:26:41.583Z,26.13
2023-04-16T06:29:08.965Z,25.53
2023-04-16T06:31:36.303Z,28.17
2023-04-16T06:34:03.475Z,29.17
2023-04-16T06:36:31.181Z,22.50
2023-04-16T06:38:58.245Z,25.63
2023-04-16T06:41:26.660Z,22.63
2023-04-16T06:43:53.790Z,20.10
2023-04-16T06:46:20.889Z,19.30
2023-04-16T06:48:47.979Z,15.02
2023-04-16T06:51:15.325Z,14.77
2023-04-16T06:53:42.595Z,16.48
2023-04-16T06:56:09.710Z,13.02
2023-04-16T06:58:36.919Z,8.73
2023-04-16T07:01:04.168Z,6.55
2023-04-16T07:03:31.760Z,6.25
2023-04-16T07:05:59.150Z,6.38
2023-04-16T07:08:26.324Z,14.90
2023-04-16T07:10:53.830Z,11.90
2023-04-16T07:13:21.645Z,9.95
2023-04-16T07:15:48.822Z,4.30
2023-04-16T07:18:16.719Z,5.90
2023-04-16T07:20:43.884Z,5.18
2023-04-16T07:23:11.000Z,6.07
2023-04-16T07:25:38.095Z,7.38
2023-04-16T07:28:05.285Z,15.68
2023-04-16T07:30:34.667Z,4.07
2023-04-16T07:33:02.265Z,4.97
2023-04-16T07:35:29.453Z,2.60
2023-04-16T07:37:56.569Z,23.38
2023-04-16T07:40:24.517Z,7.25
2023-04-16T07:42:52.910Z,2.92
2023-04-16T07:45:20.088Z,4.13
2023-04-16T07:47:47.671Z,2.65
2023-04-16T07:50:16.325Z,8.35
2023-04-16T07:52:45.254Z,9.35
2023-04-16T07:55:12.387Z,10.35
2023-04-16T07:57:39.545Z,9.73
2023-04-16T08:00:07.025Z,1.30
2023-04-16T08:02:34.199Z,1.35
2023-04-16T08:05:01.511Z,1.83
2023-04-16T08:07:28.712Z,3.45
2023-04-16T08:09:55.889Z,3.30
2023-04-16T08:12:23.067Z,2.40
2023-04-16T08:14:50.189Z,5.97
2023-04-16T08:17:17.298Z,2.15
2023-04-16T08:19:47.556Z,1.77
2023-04-16T08:22:14.729Z,2.42
2023-04-16T08:24:41.865Z,3.22
2023-04-16T08:27:18.596Z,2.30
2023-04-16T08:29:47.149Z,2.47
2023-04-16T08:32:14.255Z,3.08
2023-04-16T08:34:41.439Z,4.70
2023-04-16T08:37:08.516Z,4.03
2023-04-16T08:39:35.926Z,4.13
2023-04-16T08:42:03.473Z,7.05
2023-04-16T08:44:34.843Z,12.32
2023-04-16T08:47:02.317Z,9.68
2023-04-16T08:49:29.661Z,7.90
2023-04-16T08:51:57.022Z,3.30
2023-04-16T08:54:27.228Z,2.70
2023-04-16T08:56:54.305Z,2.83
2023-04-16T08:59:21.435Z,2.15
2023-04-16T09:01:49.192Z,1.95
2023-04-16T09:04:16.495Z,1.58
2023-04-16T09:06:43.761Z,1.70
2023-04-16T09:09:11.369Z,2.10
2023-04-16T09:11:39.553Z,3.15
2023-04-16T09:14:08.146Z,2.42
2023-04-16T09:16:35.423Z,1.83
2023-04-16T09:19:02.572Z,2.50
2023-04-16T09:21:29.709Z,2.17
2023-04-16T09:23:56.833Z,3.78
2023-04-16T09:26:23.926Z,2.58
2023-04-16T09:28:51.414Z,3.17
2023-04-16T09:31:18.940Z,1.30
2023-04-16T09:34:01.382Z,1.50
2023-04-16T09:36:28.644Z,2.03
2023-04-16T09:39:06.632Z,1.30
2023-04-16T09:41:39.483Z,1.65
2023-04-16T09:44:06.623Z,1.73
2023-04-16T09:46:42.251Z,3.38
2023-04-16T09:49:10.454Z,1.67
2023-04-16T09:51:48.034Z,2.00
2023-04-16T09:54:15.581Z,2.30
2023-04-16T09:56:43.136Z,1.67
2023-04-16T09:59:17.506Z,3.08
2023-04-16T10:01:46.991Z,1.90
2023-04-16T10:04:14.250Z,1.42
2023-04-16T10:06:41.376Z,1.60
2023-04-16T10:09:09.522Z,2.20
2023-04-16T10:11:36.779Z,2.03
2023-04-16T10:14:04.082Z,1.50
2023-04-16T10:16:31.345Z,1.30
2023-04-16T10:18:58.432Z,3.63
2023-04-16T10:21:33.538Z,2.72
2023-04-16T10:24:00.750Z,2.20
2023-04-16T10:26:27.851Z,1.80
2023-04-16T10:28:54.972Z,2.78
2023-04-16T10:31:22.142Z,2.35
2023-04-16T10:33:49.284Z,2.25
2023-04-16T10:36:17.008Z,1.52
2023-04-16T10:38:50.885Z,1.60
2023-04-16T10:41:17.961Z,2.33
2023-04-16T10:43:48.334Z,2.38
2023-04-16T10:46:26.731Z,2.10
2023-04-16T10:48:54.493Z,3.13
2023-04-16T10:51:26.049Z,3.83
2023-04-16T10:53:54.519Z,2.97
2023-04-16T10:56:25.322Z,2.10
2023-04-16T10:58:53.879Z,4.80
2023-04-16T11:01:20.986Z,5.55
2023-04-16T11:03:48.273Z,2.00
2023-04-16T11:06:17.471Z,5.47
2023-04-16T11:08:53.989Z,2.42
2023-04-16T11:11:22.099Z,4.80
2023-04-16T11:13:49.314Z,2.50
2023-04-16T11:16:16.941Z,2.70
2023-04-16T11:18:50.831Z,1.80
2023-04-16T11:21:18.894Z,2.67
2023-04-16T11:23:49.466Z,2.30
2023-04-16T11:26:29.209Z,1.60
2023-04-16T11:28:57.107Z,1.63
2023-04-16T11:31:24.865Z,1.48
2023-04-16T11:33:52.037Z,2.72
2023-04-16T11:36:19.143Z,8.50
2023-04-16T11:38:47.883Z,9.30
2023-04-16T11:41:19.931Z,2.47
2023-04-16T11:43:47.044Z,2.10
2023-04-16T11:46:26.386Z,3.60
2023-04-16T11:48:55.517Z,4.07
2023-04-16T11:51:23.401Z,3.80
2023-04-16T11:53:53.992Z,4.38
2023-04-16T11:56:30.630Z,1.88
2023-04-16T11:59:10.628Z,2.90
2023-04-16T12:01:38.249Z,4.03
2023-04-16T12:04:06.303Z,3.00
2023-04-16T12:06:33.688Z,2.80
2023-04-16T12:09:01.409Z,2.30
2023-04-16T12:11:43.690Z,2.63
2023-04-16T12:14:11.267Z,2.65
2023-04-16T12:16:38.536Z,2.20
2023-04-16T12:19:05.817Z,2.60
2023-04-16T12:21:39.266Z,4.07
2023-04-16T12:24:07.170Z,2.17
2023-04-16T12:26:41.291Z,4.68
2023-04-16T12:29:21.724Z,5.05
2023-04-16T12:31:49.621Z,4.03
2023-04-16T12:34:17.323Z,3.58
2023-04-16T12:36:47.846Z,3.65
2023-04-16T12:39:15.399Z,3.30
2023-04-16T12:41:43.283Z,3.55
2023-04-16T12:44:13.997Z,4.10
2023-04-16T12:46:41.597Z,3.38
2023-04-16T12:49:09.404Z,3.60
2023-04-16T12:51:36.724Z,3.03
2023-04-16T12:54:04.477Z,4.47
2023-04-16T12:56:31.641Z,3.70
2023-04-16T12:58:58.985Z,3.47
2023-04-16T13:01:26.258Z,4.00
2023-04-16T13:03:53.735Z,3.83
2023-04-16T13:06:21.002Z,4.22
2023-04-16T13:08:48.134Z,3.30
2023-04-16T13:11:15.623Z,5.20
2023-04-16T13:13:42.712Z,4.22
2023-04-16T13:16:09.930Z,6.05
2023-04-16T13:18:37.693Z,3.95
2023-04-16T13:21:04.853Z,4.82
2023-04-16T13:23:32.044Z,3.40
2023-04-16T13:25:59.147Z,4.28
2023-04-16T13:28:26.410Z,5.10
2023-04-16T13:30:54.237Z,15.15
2023-04-16T13:33:21.624Z,8.85
2023-04-16T13:35:49.585Z,22.35
2023-04-16T13:38:16.913Z,17.58
2023-04-16T13:40:44.076Z,5.50
2023-04-16T13:43:11.473Z,13.95
2023-04-16T13:45:39.039Z,7.65
2023-04-16T13:48:06.243Z,3.92
2023-04-16T13:50:33.343Z,6.05
2023-04-16T13:53:00.762Z,4.18
2023-04-16T13:55:27.925Z,6.65
2023-04-16T13:57:56.304Z,7.55
2023-04-16T14:00:23.467Z,6.82
2023-04-16T14:02:50.697Z,4.45
2023-04-16T14:05:19.288Z,7.25
2023-04-16T14:07:46.667Z,4.50
2023-04-16T14:10:13.770Z,3.90
2023-04-16T14:12:40.884Z,3.60
2023-04-16T14:15:09.678Z,5.63
2023-04-16T14:17:40.048Z,5.05
2023-04-16T14:20:07.429Z,4.97
2023-04-16T14:22:34.530Z,5.07
2023-04-16T14:25:01.836Z,7.78
2023-04-16T14:27:29.063Z,7.93
2023-04-16T14:29:56.263Z,4.00
2023-04-16T14:32:23.379Z,5.70
2023-04-16T14:34:50.491Z,5.78
2023-04-16T14:37:18.198Z,6.55
2023-04-16T14:39:45.475Z,6.78
2023-04-16T14:42:12.650Z,6.72
2023-04-16T14:44:39.827Z,4.93
2023-04-16T14:47:08.556Z,3.05
2023-04-16T14:49:36.317Z,3.33
2023-04-16T14:52:05.579Z,3.78
2023-04-16T14:54:33.381Z,3.10
2023-04-16T14:57:01.933Z,3.42
2023-04-16T14:59:29.136Z,4.60
2023-04-16T15:01:59.257Z,4.22
2023-04-16T15:04:26.566Z,3.47
2023-04-16T15:06:55.633Z,3.75
2023-04-16T15:09:22.854Z,3.97
2023-04-16T15:11:49.940Z,5.10
2023-04-16T15:14:17.624Z,8.70
2023-04-16T15:16:45.394Z,12.82
2023-04-16T15:19:12.740Z,7.40
2023-04-16T15:21:40.009Z,6.35
2023-04-16T15:24:07.352Z,6.97
2023-04-16T15:26:34.504Z,6.57
2023-04-16T15:29:01.637Z,3.72
2023-04-16T15:31:29.110Z,4.63
2023-04-16T15:33:56.377Z,4.95
2023-04-16T15:36:23.570Z,7.55
2023-04-16T15:38:50.833Z,6.72
2023-04-16T15:41:17.934Z,3.72
2023-04-16T15:43:46.185Z,8.13
2023-04-16T15:46:13.387Z,7.13
2023-04-16T15:48:40.544Z,6.03
2023-04-16T15:51:07.664Z,6.22
2023-04-16T15:53:34.935Z,15.32
2023-04-16T15:56:02.019Z,6.30
2023-04-16T15:58:29.159Z,9.55
2023-04-16T16:00:56.395Z,4.75
2023-04-16T16:03:23.589Z,6.55
2023-04-16T16:05:50.735Z,8.02
2023-04-16T16:08:18.420Z,7.18
2023-04-16T16:10:45.624Z,8.52
2023-04-16T16:13:14.131Z,8.75
2023-04-16T16:15:41.496Z,7.00
2023-04-16T16:18:08.707Z,10.63
2023-04-16T16:20:36.634Z,7.60
2023-04-16T16:23:03.857Z,14.75
2023-04-16T16:25:31.086Z,13.93
2023-04-16T16:27:58.913Z,12.68
2023-04-16T16:30:27.209Z,12.30
2023-04-16T16:32:54.540Z,11.27
2023-04-16T16:35:21.916Z,9.40
2023-04-16T16:37:49.091Z,10.93
2023-04-16T16:40:16.435Z,7.25
2023-04-16T16:42:43.684Z,6.30
2023-04-16T16:45:11.118Z,5.20
2023-04-16T16:47:38.332Z,47.10
2023-04-16T16:50:05.965Z,50.10
2023-04-16T16:52:33.121Z,83.20
2023-04-16T16:55:01.351Z,32.33
2023-04-16T16:57:28.525Z,68.22
2023-04-16T16:59:55.699Z,114.90
2023-04-16T17:02:23.218Z,198.15
2023-04-16T17:04:50.810Z,139.88
2023-04-16T17:07:17.972Z,63.92
2023-04-16T17:09:46.145Z,65.93
2023-04-16T17:12:13.299Z,113.22
2023-04-16T17:14:40.596Z,114.43
2023-04-16T17:17:07.767Z,40.38
2023-04-16T17:19:34.928Z,11.90
2023-04-16T17:22:02.070Z,6.10
2023-04-16T17:24:29.252Z,5.15
2023-04-16T17:26:56.982Z,25.13
2023-04-16T17:29:26.154Z,14.68
2023-04-16T17:31:53.784Z,9.90
2023-04-16T17:34:21.417Z,12.68
2023-04-16T17:36:50.448Z,9.30
2023-04-16T17:39:17.890Z,20.90
2023-04-16T17:41:45.352Z,18.48
2023-04-16T17:44:12.858Z,17.20
2023-04-16T17:46:40.411Z,29.95
2023-04-16T17:49:07.574Z,32.70
2023-04-16T17:51:34.673Z,14.48
2023-04-16T17:54:04.388Z,12.57
2023-04-16T17:56:32.004Z,16.10
2023-04-16T17:58:59.264Z,18.40
2023-04-16T18:01:27.314Z,15.75
2023-04-16T18:03:54.752Z,19.40
2023-04-16T18:06:21.941Z,16.83
2023-04-16T18:08:49.052Z,16.13
2023-04-16T18:11:16.182Z,16.55
2023-04-16T18:13:43.599Z,18.90
2023-04-16T18:16:16.967Z,18.23
2023-04-16T18:18:44.438Z,22.15
2023-04-16T18:21:11.584Z,21.45
2023-04-16T18:23:38.782Z,20.70
2023-04-16T18:26:08.441Z,20.23
2023-04-16T18:28:36.414Z,17.35
2023-04-16T18:31:05.584Z,16.27
2023-04-16T18:36:02.909Z,17.83
2023-04-16T18:38:30.595Z,23.10
2023-04-16T18:40:58.196Z,21.80
2023-04-16T18:43:25.395Z,24.10
2023-04-16T18:45:52.673Z,23.20
2023-04-16T18:48:19.818Z,26.02
2023-04-16T18:50:47.019Z,29.88
2023-04-16T18:53:14.372Z,26.52
2023-04-16T18:55:41.490Z,25.95
2023-04-16T18:58:08.656Z,24.35
2023-04-16T19:00:35.823Z,28.77
2023-04-16T19:03:07.112Z,25.08
2023-04-16T19:05:34.587Z,23.83
2023-04-16T19:08:01.827Z,19.20
2023-04-16T19:10:30.441Z,19.30
2023-04-16T19:12:57.928Z,16.83
2023-04-16T19:15:25.179Z,16.45
2023-04-16T19:17:52.395Z,19.48
2023-04-16T19:20:20.166Z,18.77
2023-04-16T19:22:47.374Z,19.75
2023-04-16T19:25:14.528Z,18.60
2023-04-16T19:27:41.636Z,28.67
2023-04-16T19:30:09.047Z,26.35
2023-04-16T19:32:36.473Z,18.90
2023-04-16T19:35:04.326Z,21.98
2023-04-16T19:37:31.548Z,19.92
2023-04-16T19:39:59.756Z,20.83
2023-04-16T19:42:27.000Z,17.75
2023-04-16T19:44:54.183Z,16.75
2023-04-16T19:47:21.472Z,13.85
2023-04-16T19:49:48.645Z,18.63
2023-04-16T19:52:16.722Z,17.13
2023-04-16T19:54:43.881Z,16.73
2023-04-16T19:57:11.046Z,24.92
2023-04-16T19:59:38.354Z,28.58
2023-04-16T20:02:05.502Z,32.25
2023-04-16T20:04:32.747Z,34.05
2023-04-16T20:06:59.914Z,34.90
2023-04-16T20:09:27.050Z,32.03
2023-04-16T20:11:54.306Z,25.88
2023-04-16T20:14:21.442Z,22.25
2023-04-16T20:16:48.682Z,20.65
2023-04-16T20:19:17.154Z,23.45
2023-04-16T20:21:45.583Z,25.05
2023-04-16T20:24:12.766Z,22.40
2023-04-16T20:26:39.918Z,20.90
2023-04-16T20:29:07.091Z,21.52
2023-04-16T20:31:34.252Z,16.35
2023-04-16T20:34:01.418Z,16.73
2023-04-16T20:36:28.840Z,15.13
2023-04-16T20:38:55.946Z,16.10
2023-04-16T20:41:25.097Z,16.88
2023-04-16T20:43:52.866Z,14.73
2023-04-16T20:46:24.207Z,15.02
2023-04-16T20:48:51.835Z,48.00
2023-04-16T20:51:19.061Z,25.33
2023-04-16T20:53:46.413Z,25.40
2023-04-16T20:56:14.985Z,33.97
2023-04-16T20:58:42.891Z,49.88
2023-04-16T21:01:10.128Z,39.60
2023-04-16T21:03:37.509Z,108.32
2023-04-16T21:06:04.940Z,62.30
2023-04-16T21:08:32.107Z,37.55
2023-04-16T21:10:59.262Z,34.03
2023-04-16T21:13:26.533Z,35.10
2023-04-16T21:15:53.803Z,27.38
2023-04-16T21:18:21.024Z,27.40
2023-04-16T21:20:48.164Z,27.13
2023-04-16T21:23:15.498Z,26.83
2023-04-16T21:25:42.599Z,26.35
2023-04-16T21:28:09.750Z,22.70
2023-04-16T21:30:37.362Z,18.58
2023-04-16T21:33:04.822Z,21.58
2023-04-16T21:35:33.249Z,20.60
2023-04-16T21:38:00.395Z,19.63
2023-04-16T21:40:27.786Z,23.45
2023-04-16T21:42:55.225Z,35.83
2023-04-16T21:45:22.411Z,25.05
2023-04-16T21:47:49.549Z,26.25
2023-04-16T21:50:16.758Z,20.50
2023-04-16T21:52:46.059Z,16.25
2023-04-16T21:55:14.259Z,14.68
2023-04-16T21:57:41.388Z,11.85
2023-04-16T22:00:12.189Z,12.13
2023-04-16T22:02:39.443Z,13.23
2023-04-16T22:05:08.113Z,16.30
2023-04-16T22:07:36.662Z,15.43
2023-04-16T22:10:04.496Z,16.05
2023-04-16T22:12:31.716Z,17.33
2023-04-16T22:15:02.768Z,18.23
2023-04-16T22:17:30.493Z,18.60
2023-04-16T22:20:00.413Z,20.27
2023-04-16T22:22:27.516Z,20.03
2023-04-16T22:24:54.650Z,19.00
2023-04-16T22:27:21.779Z,23.37
2023-04-16T22:29:48.937Z,23.50
2023-04-16T22:32:16.243Z,22.13
2023-04-16T22:34:43.498Z,22.00
2023-04-16T22:37:10.798Z,21.23
2023-04-16T22:39:37.907Z,20.83
2023-04-16T22:42:05.139Z,20.57
2023-04-16T22:44:32.404Z,24.80
2023-04-16T22:46:59.731Z,25.83
2023-04-16T22:49:28.169Z,23.37
2023-04-16T22:51:55.524Z,29.53
2023-04-16T22:54:22.657Z,34.70
2023-04-16T22:56:49.891Z,40.50
2023-04-16T22:59:17.216Z,24.03
2023-04-16T23:01:44.434Z,29.67
2023-04-16T23:04:11.690Z,24.60
2023-04-16T23:06:40.541Z,28.33
2023-04-16T23:09:07.696Z,23.23
2023-04-16T23:11:34.883Z,21.77
2023-04-16T23:14:02.518Z,21.57
2023-04-16T23:16:29.628Z,22.30
2023-04-16T23:18:56.770Z,21.77
2023-04-16T23:21:24.008Z,24.17
2023-04-16T23:23:51.178Z,29.90
2023-04-16T23:26:18.308Z,26.40
2023-04-16T23:28:45.481Z,26.77
2023-04-16T23:31:12.638Z,25.70
2023-04-16T23:33:39.790Z,24.23
2023-04-16T23:36:07.103Z,24.40
2023-04-16T23:38:34.212Z,23.90
2023-04-16T23:41:01.358Z,21.03
2023-04-16T23:43:28.524Z,21.30
2023-04-16T23:45:55.876Z,21.57
2023-04-16T23:48:23.116Z,24.50
2023-04-16T23:50:50.251Z,22.80
2023-04-16T23:53:17.415Z,20.67
2023-04-16T23:55:44.568Z,20.90
2023-04-16T23:58:11.684Z,18.90
